Time;durP1;ratioP1;P1;durP2;ratioP2;P2;SDS_P1;SDS_P2;PMS_P1;PMS_P2;Temp;Humidity;BMP_temperature;BMP_pressure;BME280_temperature;BME280_humidity;BME280_pressure;Samples;Min_cycle;Max_cycle;Signal;HPM_P1;HPM_P2
2024/04/12 00:01:14;;;;;;;13.10;9.63;;;;;;;15.11;49.29;101778.84;5236750;26;94621;-78
2024/04/12 00:03:41;;;;;;;13.00;9.40;;;;;;;15.16;49.33;101778.72;5233633;27;95190;-78
2024/04/12 00:06:17;;;;;;;18.05;11.75;;;;;;;15.21;49.07;101782.06;5234096;27;95346;-78
2024/04/12 00:08:48;;;;;;;16.60;9.25;;;;;;;15.11;49.43;101767.41;5202599;27;94644;-78
2024/04/12 00:11:18;;;;;;;14.20;8.15;;;;;;;15.18;49.65;101774.22;5228431;27;96453;-78
2024/04/12 00:13:49;;;;;;;10.80;8.33;;;;;;;15.05;49.75;101768.47;5205326;27;95558;-78
2024/04/12 00:16:23;;;;;;;12.23;8.27;;;;;;;15.02;50.04;101759.75;5206123;27;95434;-78
2024/04/12 00:18:58;;;;;;;13.95;8.80;;;;;;;15.10;50.09;101760.41;5233936;27;95390;-78
2024/04/12 00:21:24;;;;;;;13.77;10.60;;;;;;;15.10;49.86;101769.19;5236896;27;96209;-78
2024/04/12 00:23:53;;;;;;;14.27;12.88;;;;;;;15.17;49.53;101777.78;5233190;27;96113;-78
2024/04/12 00:26:19;;;;;;;17.02;10.23;;;;;;;15.21;49.59;101781.22;5234116;27;95246;-78
2024/04/12 00:28:46;;;;;;;15.85;8.95;;;;;;;15.17;49.45;101773.38;5205128;27;94736;-78
2024/04/12 00:31:13;;;;;;;13.55;8.13;;;;;;;15.19;49.72;101769.84;5234508;27;94944;-78
2024/04/12 00:33:40;;;;;;;15.25;8.38;;;;;;;15.09;49.53;101753.34;5233304;26;96075;-78
2024/04/12 00:36:07;;;;;;;14.30;7.70;;;;;;;15.26;49.71;101777.50;5194475;27;95483;-78
2024/04/12 00:38:38;;;;;;;13.68;8.43;;;;;;;15.24;49.76;101771.44;5222468;27;95245;-78
2024/04/12 00:41:19;;;;;;;16.83;9.37;;;;;;;15.23;49.96;101779.41;5235144;26;94764;-78
2024/04/12 00:43:47;;;;;;;14.43;8.90;;;;;;;15.10;50.02;101755.09;5206130;27;99616;-78
2024/04/12 00:46:19;;;;;;;12.07;6.70;;;;;;;15.18;49.95;101763.66;5229040;26;96366;-78
2024/04/12 00:48:46;;;;;;;15.93;9.27;;;;;;;15.21;49.93;101767.97;5229961;27;95013;-78
2024/04/12 00:51:15;;;;;;;12.43;6.55;;;;;;;15.21;49.92;101770.63;5232232;27;94925;-78
2024/04/12 00:53:56;;;;;;;13.98;7.40;;;;;;;15.16;50.23;101758.44;5232341;27;96955;-78
2024/04/12 00:56:27;;;;;;;14.10;6.90;;;;;;;15.20;50.19;101771.56;5228113;27;95531;-78
2024/04/12 00:58:55;;;;;;;14.82;8.10;;;;;;;15.14;50.56;101762.03;5228861;27;95122;-78
2024/04/12 01:01:22;;;;;;;17.63;9.20;;;;;;;14.99;50.62;101731.63;5228714;27;96366;-77
2024/04/12 01:03:54;;;;;;;12.75;6.72;;;;;;;15.03;50.38;101727.97;5227535;27;95297;-78
2024/04/12 01:06:24;;;;;;;10.80;6.15;;;;;;;15.16;50.57;101755.78;5205716;27;96371;-78
2024/04/12 01:09:04;;;;;;;17.27;9.65;;;;;;;15.08;50.20;101741.06;5227934;27;95176;-77
2024/04/12 01:11:31;;;;;;;14.45;7.45;;;;;;;14.97;49.98;101722.84;5226258;27;94794;-77
2024/04/12 01:13:57;;;;;;;17.55;8.50;;;;;;;14.92;50.34;101725.66;5232926;26;95782;-78
2024/04/12 01:16:23;;;;;;;10.55;7.22;;;;;;;15.10;50.35;101755.97;5223609;27;95312;-77
2024/04/12 01:18:49;;;;;;;13.40;7.15;;;;;;;15.20;49.95;101768.91;5202980;27;94748;-77
2024/04/12 01:21:15;;;;;;;15.95;7.50;;;;;;;15.17;49.85;101767.22;5200513;27;94978;-77
2024/04/12 01:23:42;;;;;;;10.23;6.00;;;;;;;15.09;49.68;101761.28;5199106;27;98908;-77
2024/04/12 01:26:12;;;;;;;14.15;6.35;;;;;;;15.15;49.70;101761.09;5232663;27;95545;-78
2024/04/12 01:28:42;;;;;;;10.48;5.70;;;;;;;15.02;49.68;101733.31;5228091;27;94822;-78
2024/04/12 01:31:08;;;;;;;12.88;6.43;;;;;;;15.17;49.59;101762.78;5224813;27;95013;-78
2024/04/12 01:33:36;;;;;;;13.90;6.32;;;;;;;15.24;49.63;101760.84;5192168;27;97408;-78
2024/04/12 01:36:04;;;;;;;11.68;7.97;;;;;;;15.20;49.99;101764.47;5204458;27;99011;-78
2024/04/12 01:38:31;;;;;;;12.35;6.72;;;;;;;15.10;50.18;101744.53;5198524;27;95093;-78
2024/04/12 01:40:57;;;;;;;14.20;11.35;;;;;;;15.24;49.94;101765.25;5204554;27;95062;-79
2024/04/12 01:43:26;;;;;;;17.92;14.82;;;;;;;15.24;50.18;101762.59;5197697;27;95334;-77
2024/04/12 01:45:54;;;;;;;15.35;13.60;;;;;;;15.09;50.36;101740.13;5170804;27;99427;-78
2024/04/12 01:48:23;;;;;;;14.68;12.80;;;;;;;15.19;50.18;101761.91;5231395;27;94678;-78
2024/04/12 01:50:51;;;;;;;13.80;5.80;;;;;;;15.13;50.61;101760.31;5234140;27;95552;-80
2024/04/12 01:53:21;;;;;;;18.38;14.63;;;;;;;15.13;50.19;101758.53;5233268;26;95082;-80
2024/04/12 01:55:50;;;;;;;17.45;12.57;;;;;;;15.16;50.41;101760.22;5203202;26;98073;-81
2024/04/12 01:58:19;;;;;;;14.60;12.48;;;;;;;15.18;50.39;101766.28;5221924;26;95185;-80
2024/04/12 02:00:45;;;;;;;15.30;13.65;;;;;;;15.11;50.39;101754.19;5235251;27;94853;-80
2024/04/12 02:03:13;;;;;;;13.93;12.43;;;;;;;15.11;50.63;101760.34;5205863;27;97444;-79
2024/04/12 02:05:38;;;;;;;14.90;10.30;;;;;;;15.11;50.47;101762.13;5234299;26;99651;-77
2024/04/12 02:08:16;;;;;;;15.63;13.95;;;;;;;15.07;50.48;101758.72;5236742;26;95659;-80
2024/04/12 02:10:44;;;;;;;19.88;10.45;;;;;;;15.12;50.44;101755.91;5227096;26;95024;-80
2024/04/12 02:13:16;;;;;;;20.33;7.05;;;;;;;15.12;50.63;101762.06;5194132;27;99014;-77
2024/04/12 02:15:51;;;;;;;13.32;6.20;;;;;;;15.00;50.85;101738.63;5232892;27;95355;-80
2024/04/12 02:18:20;;;;;;;9.80;5.95;;;;;;;14.89;51.08;101725.75;5234185;27;95050;-80
2024/04/12 02:20:47;;;;;;;11.00;5.55;;;;;;;14.82;50.83;101716.25;5228536;27;94886;-80
2024/04/12 02:23:13;;;;;;;15.13;6.13;;;;;;;14.74;50.95;101720.03;5226305;26;95325;-80
2024/04/12 02:25:40;;;;;;;17.23;11.18;;;;;;;14.58;51.64;101715.19;5226256;27;96764;-80
2024/04/12 02:28:07;;;;;;;14.05;6.10;;;;;;;14.57;51.63;101717.88;5196400;27;94915;-80
2024/04/12 02:30:41;;;;;;;10.20;5.78;;;;;;;14.73;51.63;101748.25;5230253;26;94889;-80
2024/04/12 02:33:18;;;;;;;12.15;5.60;;;;;;;14.74;51.77;101735.91;5230782;26;95269;-80
2024/04/12 02:35:44;;;;;;;11.05;6.00;;;;;;;14.77;51.57;101739.31;5233979;27;95760;-80
2024/04/12 02:38:15;;;;;;;11.88;5.85;;;;;;;14.83;51.75;101747.06;5229422;27;97091;-80
2024/04/12 02:40:45;;;;;;;13.50;5.82;;;;;;;14.84;51.65;101740.88;5202202;27;94852;-80
2024/04/12 02:43:15;;;;;;;13.63;5.32;;;;;;;14.84;51.96;101734.72;5228798;27;96173;-80
2024/04/12 02:46:06;;;;;;;19.55;6.30;;;;;;;14.91;51.81;101749.47;5233402;26;95527;-80
2024/04/12 02:48:33;;;;;;;14.40;7.63;;;;;;;14.62;52.13;101711.53;5225769;27;94879;-80
2024/04/12 02:51:04;;;;;;;17.85;7.43;;;;;;;14.56;52.26;101718.78;5230475;27;95001;-80
2024/04/12 02:53:30;;;;;;;11.18;6.43;;;;;;;14.52;52.71;101715.38;5233917;27;95573;-80
2024/04/12 02:56:31;;;;;;;14.00;6.95;;;;;;;14.65;52.51;101753.75;5202829;27;99554;-80
2024/04/12 02:58:57;;;;;;;13.93;6.00;;;;;;;14.43;52.63;101724.41;5232554;26;95415;-80
2024/04/12 03:01:24;;;;;;;13.68;6.25;;;;;;;14.55;52.48;101741.72;5231430;27;94948;-80
2024/04/12 03:03:55;;;;;;;11.57;6.88;;;;;;;14.56;52.95;101755.78;5200688;26;99098;-80
2024/04/12 03:06:23;;;;;;;14.82;6.93;;;;;;;14.49;52.96;101737.44;5201514;27;95576;-80
2024/04/12 03:08:53;;;;;;;16.60;7.20;;;;;;;14.38;52.82;101734.22;5206159;27;94741;-80
2024/04/12 03:11:22;;;;;;;21.20;15.90;;;;;;;14.32;53.21;101734.38;5226932;27;96185;-80
2024/04/12 03:13:54;;;;;;;17.13;6.80;;;;;;;14.34;53.13;101736.97;5224578;26;95340;-80
2024/04/12 03:16:21;;;;;;;19.58;6.90;;;;;;;14.27;53.11;101750.34;5201403;27;96080;-80
2024/04/12 03:18:51;;;;;;;15.43;7.95;;;;;;;14.00;53.18;101720.25;5229341;26;94730;-80
2024/04/12 03:21:30;;;;;;;14.02;8.05;;;;;;;14.13;53.77;101743.69;5178437;27;94998;-80
2024/04/12 03:23:57;;;;;;;19.23;8.43;;;;;;;14.11;53.64;101738.47;5231784;27;95568;-80
2024/04/12 03:26:27;;;;;;;17.67;7.72;;;;;;;13.86;53.87;101709.19;5204411;27;99258;-80
2024/04/12 03:28:54;;;;;;;13.13;7.20;;;;;;;13.94;53.95;101723.06;5196004;27;95469;-80
2024/04/12 03:31:20;;;;;;;17.23;8.70;;;;;;;13.81;54.23;101701.38;5234150;26;94978;-80
2024/04/12 03:33:46;;;;;;;20.00;8.75;;;;;;;13.85;54.39;101714.53;5226415;26;99273;-80
2024/04/12 03:41:47;;;;;;;19.75;13.75;;;;;;;13.93;54.77;101738.94;5209267;27;94945;-80
2024/04/12 03:44:13;;;;;;;18.23;15.63;;;;;;;13.87;54.86;101729.38;5228020;27;95335;-80
2024/04/12 03:46:44;;;;;;;21.58;15.02;;;;;;;13.82;55.23;101732.16;5228505;27;95569;-80
2024/04/12 03:49:10;;;;;;;21.02;14.52;;;;;;;13.77;55.40;101720.84;5224972;27;94705;-80
2024/04/12 03:51:44;;;;;;;26.52;14.30;;;;;;;13.70;55.63;101718.38;5228896;27;94704;-80
2024/04/12 03:54:21;;;;;;;19.85;16.25;;;;;;;13.58;55.75;101693.19;5223053;27;95533;-80
2024/04/12 03:56:49;;;;;;;26.17;17.73;;;;;;;13.58;55.72;101698.44;5233120;27;94960;-80
2024/04/12 03:59:24;;;;;;;21.38;12.75;;;;;;;13.77;55.90;101735.81;5224090;26;96793;-80
2024/04/12 04:01:54;;;;;;;31.15;14.10;;;;;;;13.51;55.63;101694.25;5200889;26;94803;-80
2024/04/12 04:04:25;;;;;;;26.20;14.50;;;;;;;13.73;55.89;101735.03;5203724;27;95233;-80
2024/04/12 04:06:57;;;;;;;25.10;14.77;;;;;;;13.57;55.86;101707.28;5228597;27;95318;-80
2024/04/12 04:09:26;;;;;;;33.53;12.15;;;;;;;13.69;56.06;101743.06;5226684;26;95115;-80
2024/04/12 04:11:53;;;;;;;24.02;11.85;;;;;;;13.54;55.98;101704.72;5225036;27;94825;-79
2024/04/12 04:14:20;;;;;;;25.48;11.98;;;;;;;13.74;55.94;101741.19;5231141;26;96208;-80
2024/04/12 04:16:49;;;;;;;28.50;12.02;;;;;;;13.69;55.92;101724.59;5173047;27;99607;-80
2024/04/12 04:19:33;;;;;;;26.10;12.63;;;;;;;13.57;55.91;101707.28;5221238;26;96645;-80
2024/04/12 04:22:21;;;;;;;23.42;12.55;;;;;;;13.49;56.12;101694.28;5231948;27;94799;-80
2024/04/12 04:24:48;;;;;;;18.85;13.10;;;;;;;13.71;55.89;101726.28;5231620;27;95975;-80
2024/04/12 04:27:15;;;;;;;14.60;12.63;;;;;;;13.47;56.05;101688.19;5229644;27;96157;-80
2024/04/12 04:29:43;;;;;;;19.35;13.60;;;;;;;13.77;55.72;101728.75;5222661;27;96475;-80
2024/04/12 04:32:10;;;;;;;18.55;12.32;;;;;;;13.77;55.41;101726.13;5193724;27;96228;-80
2024/04/12 04:34:36;;;;;;;19.92;11.98;;;;;;;13.78;55.77;101727.00;5186888;27;97551;-82
2024/04/12 04:37:05;;;;;;;22.30;14.15;;;;;;;13.70;55.50;101706.09;5229622;27;97015;-80
2024/04/12 04:39:32;;;;;;;25.17;13.40;;;;;;;13.94;55.27;101740.69;5223409;27;95348;-80
2024/04/12 04:41:58;;;;;;;26.60;14.45;;;;;;;14.03;54.89;101741.31;5170729;27;95294;-79
2024/04/12 04:44:24;;;;;;;19.27;13.75;;;;;;;14.14;54.14;101733.13;5200957;27;99300;-79
2024/04/12 04:46:50;;;;;;;21.73;12.60;;;;;;;14.55;53.47;101754.06;5184159;27;96404;-80
2024/04/12 04:49:18;;;;;;;19.50;13.77;;;;;;;14.78;52.99;101732.28;5225402;27;94877;-80
2024/04/12 04:51:47;;;;;;;20.45;13.35;;;;;;;15.13;52.23;101753.22;5196955;27;95030;-78
2024/04/12 04:54:13;;;;;;;20.58;12.57;;;;;;;15.17;51.64;101709.88;5176386;27;99292;-79
2024/04/12 04:56:39;;;;;;;27.60;15.43;;;;;;;15.64;50.94;101746.34;5198375;27;99625;-77
2024/04/12 04:59:06;;;;;;;26.48;13.35;;;;;;;15.63;50.49;101718.16;5217003;27;95020;-79
2024/04/12 05:01:34;;;;;;;18.85;12.43;;;;;;;15.90;50.00;101736.69;5233286;27;94922;-78
2024/04/12 05:04:00;;;;;;;21.63;14.15;;;;;;;16.36;49.47;101756.31;5192996;27;99724;-78
2024/04/12 05:06:27;;;;;;;19.85;12.88;;;;;;;16.73;48.11;101755.84;5198709;27;95495;-85
2024/04/12 05:09:00;;;;;;;19.52;12.85;;;;;;;16.90;47.25;101711.03;5224270;26;94730;-84
2024/04/12 05:11:29;;;;;;;19.30;11.35;;;;;;;17.58;46.06;101724.25;5224208;27;96285;-73
2024/04/12 05:14:05;;;;;;;14.07;11.38;;;;;;;18.63;44.15;101756.06;5232337;27;95528;-80
2024/04/12 05:16:32;;;;;;;14.80;10.75;;;;;;;19.68;41.35;101752.91;5231749;27;95430;-80
2024/04/12 05:19:07;;;;;;;19.30;11.75;;;;;;;21.16;38.81;101746.03;5199747;27;94793;-80
2024/04/12 05:21:42;;;;;;;15.50;10.50;;;;;;;23.21;35.02;101724.84;5229987;27;95022;-80
2024/04/12 05:24:09;;;;;;;16.92;10.90;;;;;;;25.02;32.55;101741.06;5232366;26;95403;-81
2024/04/12 05:26:36;;;;;;;19.67;12.02;;;;;;;26.07;29.98;101739.56;5233179;26;95507;-80
2024/04/12 05:29:06;;;;;;;18.73;12.40;;;;;;;27.06;29.46;101726.25;5237509;27;94892;-80
2024/04/12 05:31:31;;;;;;;18.48;13.07;;;;;;;27.99;28.20;101752.69;5234600;27;94966;-80
2024/04/12 05:34:00;;;;;;;16.98;11.05;;;;;;;28.82;27.30;101742.78;5206829;27;99463;-80
2024/04/12 05:36:26;;;;;;;17.02;14.38;;;;;;;29.62;25.83;101721.19;5207302;27;99444;-81
2024/04/12 05:38:52;;;;;;;17.58;15.82;;;;;;;30.62;24.79;101709.88;5236372;27;94735;-75
2024/04/12 05:41:17;;;;;;;16.08;4.03;;;;;;;31.74;23.60;101737.59;5229916;27;94942;-78
2024/04/12 05:43:43;;;;;;;13.13;3.85;;;;;;;31.52;23.60;101727.22;5235200;26;96201;-78
2024/04/12 05:46:09;;;;;;;12.05;3.80;;;;;;;30.72;24.15;101726.09;5234021;26;96714;-79
2024/04/12 05:48:36;;;;;;;6.60;3.47;;;;;;;31.78;23.00;101700.13;5237242;26;94788;-78
2024/04/12 05:51:02;;;;;;;12.50;4.25;;;;;;;32.60;22.11;101730.56;5234599;26;94892;-80
2024/04/12 05:53:31;;;;;;;7.28;3.97;;;;;;;31.81;22.21;101713.38;5235203;26;95721;-77
2024/04/12 05:56:39;;;;;;;7.28;3.15;;;;;;;29.96;23.88;101732.44;5230934;27;99776;-80
2024/04/12 05:58:46;;;;;;;10.27;5.70;;;;;;;30.30;23.81;101730.09;5217863;27;94971;-79
2024/04/12 06:01:11;;;;;;;8.70;4.25;;;;;;;29.57;24.58;101705.38;5178772;27;95095;-79
2024/04/12 06:03:42;;;;;;;11.63;7.13;;;;;;;29.39;25.00;101743.09;5206709;27;98296;-79
2024/04/12 06:06:08;;;;;;;;;;;;;;;32.33;21.56;101739.75;5207987;26;99592;-79
2024/04/12 06:08:35;;;;;;;16.42;14.77;;;;;;;31.71;22.82;101740.63;5222164;26;94998;-79
2024/04/12 06:11:01;;;;;;;18.88;13.38;;;;;;;31.13;22.92;101725.63;5204799;27;94821;-79
2024/04/12 06:13:28;;;;;;;12.10;9.80;;;;;;;31.19;22.67;101728.72;5213243;27;96125;-80
2024/04/12 06:15:54;;;;;;;19.30;17.48;;;;;;;31.67;23.07;101735.66;5227777;26;96173;-79
2024/04/12 06:18:20;;;;;;;18.20;16.80;;;;;;;36.13;18.39;101747.88;5235057;27;95536;-79
2024/04/12 06:20:45;;;;;;;20.42;17.40;;;;;;;38.92;17.24;101743.38;5206380;27;94742;-82
2024/04/12 06:23:11;;;;;;;20.60;10.02;;;;;;;40.34;15.71;101735.91;5235823;26;96135;-79
2024/04/12 06:25:38;;;;;;;16.08;7.38;;;;;;;40.53;15.85;101741.56;5199167;27;95486;-80
2024/04/12 06:28:12;;;;;;;11.48;2.97;;;;;;;41.42;14.90;101735.19;5226963;27;95055;-80
2024/04/12 06:30:47;;;;;;;4.70;3.00;;;;;;;41.11;14.54;101725.06;5225961;27;95338;-78
2024/04/12 06:33:25;;;;;;;8.90;3.03;;;;;;;41.28;14.63;101728.97;5226439;27;99338;-77
2024/04/12 06:36:11;;;;;;;15.85;3.47;;;;;;;41.46;15.16;101741.13;5228666;26;96405;-77
2024/04/12 06:38:38;;;;;;;20.98;4.30;;;;;;;41.56;14.33;101733.22;5224866;26;94853;-81
2024/04/12 06:41:10;;;;;;;15.45;5.38;;;;;;;43.14;13.78;101738.13;5226630;26;95122;-80
2024/04/12 06:43:37;;;;;;;5.10;2.55;;;;;;;43.52;13.54;101730.50;5194219;27;97171;-80
2024/04/12 06:46:11;;;;;;;11.38;2.83;;;;;;;43.37;14.25;101742.84;5163887;27;99404;-79
2024/04/12 06:48:40;;;;;;;8.85;3.40;;;;;;;44.19;13.56;101724.66;5234188;26;94816;-77
2024/04/12 06:51:11;;;;;;;24.42;16.00;;;;;;;44.17;13.07;101737.91;5235218;27;94887;-76
2024/04/12 06:53:44;;;;;;;26.17;24.20;;;;;;;44.01;13.18;101720.13;5234015;26;95631;-79
2024/04/12 06:56:15;;;;;;;28.88;26.20;;;;;;;43.86;13.44;101715.06;5218073;27;96629;-82
2024/04/12 06:58:48;;;;;;;31.52;28.23;;;;;;;43.84;12.89;101718.06;5234794;26;94709;-84
2024/04/12 07:01:15;;;;;;;12.73;11.43;;;;;;;43.40;13.54;101731.34;5235083;26;94812;-84
2024/04/12 07:03:45;;;;;;;9.70;8.90;;;;;;;43.60;13.28;101728.25;5233462;27;95985;-83
2024/04/12 07:06:14;;;;;;;21.08;12.57;;;;;;;44.53;12.86;101727.63;5234648;27;95455;-84
2024/04/12 07:08:49;;;;;;;25.52;23.60;;;;;;;44.58;12.49;101724.97;5232871;26;94744;-82
2024/04/12 07:11:19;;;;;;;10.20;2.45;;;;;;;46.12;11.76;101739.66;5233267;27;94854;-84
2024/04/12 07:13:51;;;;;;;8.85;2.60;;;;;;;46.97;11.16;101716.84;5172985;27;99106;-83
2024/04/12 07:16:20;;;;;;;6.13;2.60;;;;;;;47.50;10.85;101742.09;5234127;27;96415;-81
2024/04/12 07:18:46;;;;;;;20.52;18.50;;;;;;;48.14;10.88;101741.19;5235326;26;94710;-82
2024/04/12 07:21:15;;;;;;;28.65;22.38;;;;;;;48.24;10.55;101718.97;5229290;27;95020;-81
2024/04/12 07:23:46;;;;;;;7.50;4.28;;;;;;;48.86;10.75;101731.19;5222228;27;95488;-80
2024/04/12 07:26:26;;;;;;;31.50;28.45;;;;;;;49.93;9.80;101735.97;5203542;27;97190;-80
2024/04/12 07:28:59;;;;;;;15.00;11.73;;;;;;;49.46;10.11;101714.81;5192110;27;98891;-79
2024/04/12 07:31:34;;;;;;;8.55;2.33;;;;;;;49.36;9.90;101737.94;5169467;27;94802;-79
2024/04/12 07:34:01;;;;;;;8.70;2.00;;;;;;;50.13;9.96;101731.47;5166205;27;95991;-81
2024/04/12 07:36:30;;;;;;;10.20;2.33;;;;;;;50.21;9.96;101719.69;5166823;27;95437;-82
2024/04/12 07:39:03;;;;;;;7.20;2.33;;;;;;;50.41;9.59;101725.19;5167444;27;94704;-82
2024/04/12 07:41:32;;;;;;;6.05;2.38;;;;;;;48.77;10.85;101737.56;5160508;27;95363;-80
2024/04/12 07:43:58;;;;;;;6.18;2.38;;;;;;;46.81;11.50;101726.13;5124193;27;95439;-80
2024/04/12 07:46:27;;;;;;;3.22;2.38;;;;;;;48.61;10.90;101728.31;5160117;27;99361;-82
2024/04/12 07:48:57;;;;;;;3.80;2.10;;;;;;;50.65;9.81;101727.31;5160587;27;95241;-79
2024/04/12 07:51:28;;;;;;;6.45;2.70;;;;;;;52.14;8.97;101722.13;5132021;27;96679;-80
2024/04/12 07:53:55;;;;;;;5.05;2.75;;;;;;;52.14;8.92;101722.13;5162431;27;96152;-80
2024/04/12 07:56:21;;;;;;;10.80;2.70;;;;;;;52.16;8.99;101707.81;5158301;27;95463;-80
2024/04/12 07:59:01;;;;;;;6.15;2.88;;;;;;;51.01;9.42;101719.56;5149054;27;95296;-79
2024/04/12 08:01:30;;;;;;;17.40;2.90;;;;;;;52.92;9.43;101714.31;5110801;27;96215;-79
2024/04/12 08:03:56;;;;;;;5.95;2.63;;;;;;;53.89;8.26;101709.84;5154697;27;96504;-80
2024/04/12 08:06:55;;;;;;;6.90;2.63;;;;;;;54.08;8.18;101692.88;5162536;27;96253;-79
2024/04/12 08:09:34;;;;;;;8.88;2.40;;;;;;;53.04;9.09;101689.50;5154879;27;96393;-80
2024/04/12 08:12:04;;;;;;;10.88;3.10;;;;;;;55.44;7.96;101691.06;5156887;27;94797;-80
2024/04/12 08:14:33;;;;;;;10.02;3.20;;;;;;;55.33;7.77;101687.69;5157525;27;96709;-80
2024/04/12 08:17:01;;;;;;;7.10;2.22;;;;;;;55.12;8.43;101678.94;5161956;27;95412;-81
2024/04/12 08:19:38;;;;;;;6.23;2.40;;;;;;;54.61;8.71;101695.09;5156845;27;95972;-80
2024/04/12 08:22:04;;;;;;;17.58;16.38;;;;;;;54.61;8.67;101683.84;5137563;27;94848;-81
2024/04/12 08:24:30;;;;;;;11.90;11.02;;;;;;;54.47;8.25;101678.28;5150856;27;95273;-80
2024/04/12 08:26:57;;;;;;;19.10;17.85;;;;;;;56.16;8.19;101668.13;5125732;27;97542;-80
2024/04/12 08:29:29;;;;;;;9.90;9.20;;;;;;;57.83;7.69;101684.47;5212907;27;96274;-80
2024/04/12 08:32:13;;;;;;;4.57;2.60;;;;;;;58.07;7.33;101677.34;5227458;27;96395;-83
2024/04/12 08:34:44;;;;;;;8.93;2.90;;;;;;;53.58;8.84;101671.13;5169297;27;97326;-83
2024/04/12 08:37:13;;;;;;;5.47;2.28;;;;;;;52.89;8.90;101678.50;5223919;26;99678;-82
2024/04/12 08:39:43;;;;;;;9.90;2.58;;;;;;;53.65;9.03;101681.09;5231154;27;97228;-81
2024/04/12 08:42:10;;;;;;;5.88;2.25;;;;;;;54.38;8.94;101682.16;5227482;27;94963;-80
2024/04/12 08:44:37;;;;;;;5.90;2.75;;;;;;;54.37;8.87;101675.69;5222296;26;96130;-84
2024/04/12 08:47:30;;;;;;;4.68;2.45;;;;;;;54.45;9.10;101668.50;5194414;27;98877;-82
2024/04/12 08:50:06;;;;;;;4.32;2.47;;;;;;;53.81;9.37;101674.91;5227303;27;95312;-82
2024/04/12 08:52:42;;;;;;;5.63;2.08;;;;;;;55.18;8.21;101657.97;5218152;27;97535;-81
2024/04/12 08:55:13;;;;;;;5.07;2.60;;;;;;;56.33;8.33;101669.34;5201894;27;99706;-81
2024/04/12 08:57:42;;;;;;;6.93;2.40;;;;;;;57.40;7.54;101668.53;5200797;27;99767;-82
2024/04/12 09:00:15;;;;;;;2.65;2.45;;;;;;;57.56;7.78;101657.53;5227494;27;95162;-80
2024/04/12 09:02:48;;;;;;;3.88;2.58;;;;;;;56.41;8.09;101660.91;5226476;26;94972;-80
2024/04/12 09:05:15;;;;;;;6.03;2.55;;;;;;;56.92;7.66;101658.38;5227883;26;95424;-81
2024/04/12 09:07:42;;;;;;;5.68;3.30;;;;;;;56.44;8.02;101651.78;5229859;26;96008;-80
2024/04/12 09:10:08;;;;;;;5.78;2.70;;;;;;;56.42;7.89;101659.72;5230542;26;94865;-81
2024/04/12 09:12:36;;;;;;;8.02;3.60;;;;;;;56.78;8.26;101658.56;5229026;26;95257;-81
2024/04/12 09:15:03;;;;;;;3.05;1.95;;;;;;;51.89;9.55;101658.88;5224964;26;99545;-80
2024/04/12 09:17:29;;;;;;;2.40;2.20;;;;;;;51.71;9.44;101654.06;5230210;26;95525;-80
2024/04/12 09:19:58;;;;;;;3.63;2.83;;;;;;;51.61;9.24;101649.38;5229083;26;96100;-80
2024/04/12 09:22:27;;;;;;;9.30;2.97;;;;;;;52.90;9.02;101638.97;5234018;26;94829;-80
2024/04/12 09:24:58;;;;;;;3.17;2.25;;;;;;;54.07;8.37;101640.69;5223277;26;98027;-81
2024/04/12 09:27:33;;;;;;;4.88;2.63;;;;;;;55.14;8.00;101654.16;5199776;27;95557;-80
2024/04/12 09:32:50;;;;;;;15.25;2.83;;;;;;;54.32;8.35;101647.75;5189113;27;95335;-81
2024/04/12 09:32:51;;;;;;;6.07;2.20;;;;;;;52.74;9.14;101645.97;5227441;27;94849;-81
2024/04/12 09:35:18;;;;;;;4.20;1.98;;;;;;;48.23;11.77;101638.53;5203567;27;96122;-81
2024/04/12 09:37:44;;;;;;;4.60;2.30;;;;;;;45.73;13.11;101639.75;5233032;26;95367;-81
2024/04/12 09:45:45;;;;;;;9.93;9.02;;;;;;;37.46;18.02;101651.06;5222937;27;99327;-81
2024/04/12 10:38:03;;;;;;;6.53;1.67;;;;;;;31.59;25.42;101622.47;5202673;27;96612;-78
2024/04/12 10:40:30;;;;;;;11.75;1.95;;;;;;;31.18;25.76;101630.22;5195640;27;95342;-79
2024/04/12 10:42:59;;;;;;;3.58;1.80;;;;;;;30.94;26.39;101632.72;5191310;27;99954;-79
2024/04/12 10:45:27;;;;;;;6.70;1.60;;;;;;;30.41;26.99;101629.72;5223795;26;95212;-79
2024/04/12 10:47:56;;;;;;;5.43;1.60;;;;;;;30.06;27.04;101599.78;5224258;27;94903;-80
2024/04/12 10:50:23;;;;;;;8.70;2.20;;;;;;;30.55;26.96;101604.00;5226309;27;96068;-78
2024/04/12 10:52:51;;;;;;;8.75;2.45;;;;;;;30.79;26.95;101630.53;5228323;26;96676;-79
2024/04/12 10:55:19;;;;;;;7.45;1.92;;;;;;;30.21;27.58;101607.28;5189835;27;96146;-77
2024/04/12 10:57:48;;;;;;;7.70;1.38;;;;;;;29.62;28.28;101603.03;5222301;27;95655;-77
2024/04/12 11:00:15;;;;;;;6.72;2.13;;;;;;;29.28;28.01;101603.47;5229115;26;95600;-78
2024/04/12 11:02:45;;;;;;;10.35;2.05;;;;;;;29.40;27.90;101587.94;5184920;27;95668;-80
2024/04/12 11:07:45;;;;;;;8.55;1.50;;;;;;;28.31;29.42;101608.69;5226873;26;95453;-79
2024/04/12 11:10:23;;;;;;;4.68;1.50;;;;;;;28.71;29.37;101604.25;5228238;27;97869;-77
2024/04/12 11:13:10;;;;;;;7.63;2.20;;;;;;;28.37;29.64;101604.59;5223365;27;96132;-75
2024/04/12 11:32:12;;;;;;;;;;;;;;;26.16;33.05;101589.00;5155451;27;95913;-79
2024/04/12 11:34:38;;;;;;;6.07;2.95;;;;;;;26.12;32.76;101579.47;5162393;27;95804;-79
2024/04/12 11:37:06;;;;;;;8.90;3.60;;;;;;;26.28;33.43;101589.00;5156955;27;96226;-79
2024/04/12 11:39:35;;;;;;;8.65;6.03;;;;;;;26.37;33.45;101575.63;5160796;27;95296;-78
2024/04/12 11:42:05;;;;;;;11.50;8.00;;;;;;;25.70;34.22;101573.78;5161688;27;95359;-79
2024/04/12 11:44:35;;;;;;;6.78;6.18;;;;;;;25.42;33.62;101560.75;5132584;27;99547;-79
2024/04/12 11:47:03;;;;;;;6.63;5.00;;;;;;;25.03;34.29;101560.13;5160661;27;95337;-78
2024/04/12 11:49:41;;;;;;;10.52;2.40;;;;;;;25.32;35.34;101578.59;5162759;27;95320;-78
2024/04/12 11:52:15;;;;;;;7.68;2.35;;;;;;;25.32;34.53;101573.22;5150754;27;96265;-77
2024/04/12 11:54:51;;;;;;;10.82;3.15;;;;;;;24.66;34.14;101527.97;5153888;27;96612;-78
2024/04/12 11:57:22;;;;;;;4.25;2.75;;;;;;;24.58;34.59;101498.16;5154367;27;95645;-82
2024/04/12 11:59:48;;;;;;;16.70;4.07;;;;;;;24.69;35.74;101543.00;5161982;27;94778;-83
2024/04/12 12:02:14;;;;;;;10.82;8.75;;;;;;;24.80;35.91;101535.84;5154874;27;94785;-80
2024/04/12 12:04:40;;;;;;;8.57;2.08;;;;;;;24.83;35.80;101519.50;5159108;27;97994;-79
2024/04/12 12:07:10;;;;;;;5.25;1.50;;;;;;;24.85;35.32;101504.16;5157126;27;97209;-80
2024/04/12 12:09:38;;;;;;;4.00;1.60;;;;;;;24.85;35.26;101530.16;5156063;27;94851;-79
2024/04/12 12:12:11;;;;;;;9.10;1.65;;;;;;;24.95;35.63;101535.66;5155209;27;95359;-79
2024/04/12 12:14:38;;;;;;;5.90;1.80;;;;;;;25.14;34.95;101511.00;5155248;27;96162;-79
2024/04/12 12:17:06;;;;;;;4.03;1.85;;;;;;;24.63;33.98;101529.06;5134549;27;95392;-80
2024/04/12 12:19:35;;;;;;;4.10;2.33;;;;;;;24.49;35.37;101531.03;5153763;27;96154;-79
2024/04/12 12:22:02;;;;;;;5.45;2.17;;;;;;;24.68;35.29;101484.91;5152216;27;95699;-79
2024/04/12 12:24:29;;;;;;;5.30;1.70;;;;;;;24.68;35.19;101498.34;5129251;27;98805;-79
2024/04/12 12:26:54;;;;;;;7.60;1.70;;;;;;;24.16;35.64;101470.81;5156902;27;96422;-80
2024/04/12 12:29:20;;;;;;;5.05;1.70;;;;;;;24.42;35.71;101476.94;5213356;27;97290;-79
2024/04/12 12:31:46;;;;;;;5.15;1.58;;;;;;;24.63;35.21;101483.41;5224496;27;95390;-78
2024/04/12 12:34:14;;;;;;;8.35;2.00;;;;;;;24.04;36.37;101458.31;5227498;27;95378;-76
2024/04/12 12:36:40;;;;;;;6.95;1.77;;;;;;;23.93;35.85;101456.41;5229384;26;95516;-77
2024/04/12 12:39:05;;;;;;;7.45;2.30;;;;;;;23.93;36.89;101443.00;5230212;27;94931;-75
2024/04/12 12:41:32;;;;;;;9.93;2.70;;;;;;;23.95;36.39;101482.13;5199115;27;97338;-76
2024/04/12 12:44:00;;;;;;;6.88;1.60;;;;;;;23.94;36.96;101420.59;5226900;26;96880;-78
2024/04/12 12:46:26;;;;;;;8.35;2.65;;;;;;;24.48;37.07;101475.66;5195645;27;94781;-78
2024/04/12 12:48:55;;;;;;;8.88;3.30;;;;;;;24.01;36.82;101450.50;5228760;27;95011;-78
2024/04/12 12:51:26;;;;;;;5.60;2.03;;;;;;;24.31;37.02;101479.56;5225193;27;95390;-78